sensor_id;sensor_type;location;lat;lon;timestamp;pressure;altitude;pressure_sealevel;temperature;humidity
73679;BME280;61978;52.742;16.962;2022-08-19T00:01:46;100218.80;;;21.76;100.00
73679;BME280;61978;52.742;16.962;2022-08-19T00:04:17;100208.12;;;21.72;100.00
73679;BME280;61978;52.742;16.962;2022-08-19T00:06:45;100202.12;;;21.70;100.00
73679;BME280;61978;52.742;16.962;2022-08-19T00:09:17;100199.63;;;21.71;100.00
73679;BME280;61978;52.742;16.962;2022-08-19T00:11:46;100195.27;;;21.75;100.00
73679;BME280;61978;52.742;16.962;2022-08-19T00:14:16;100195.55;;;21.81;100.00
73679;BME280;61978;52.742;16.962;2022-08-19T00:16:45;100192.80;;;21.86;100.00
73679;BME280;61978;52.742;16.962;2022-08-19T00:19:15;100196.13;;;21.88;100.00
73679;BME280;61978;52.742;16.962;2022-08-19T00:21:44;100198.27;;;21.86;100.00
73679;BME280;61978;52.742;16.962;2022-08-19T00:24:13;100201.30;;;21.82;100.00
73679;BME280;61978;52.742;16.962;2022-08-19T00:26:42;100207.30;;;21.82;100.00
73679;BME280;61978;52.742;16.962;2022-08-19T00:29:10;100207.84;;;21.81;100.00
73679;BME280;61978;52.742;16.962;2022-08-19T00:31:41;100210.58;;;21.81;100.00
73679;BME280;61978;52.742;16.962;2022-08-19T00:34:11;100205.94;;;21.79;100.00
73679;BME280;61978;52.742;16.962;2022-08-19T00:36:44;100207.31;;;21.79;100.00
73679;BME280;61978;52.742;16.962;2022-08-19T00:39:09;100200.19;;;21.81;100.00
73679;BME280;61978;52.742;16.962;2022-08-19T00:41:37;100200.73;;;21.80;100.00
73679;BME280;61978;52.742;16.962;2022-08-19T00:44:13;100198.00;;;21.78;100.00
73679;BME280;61978;52.742;16.962;2022-08-19T00:46:37;100197.17;;;21.77;100.00
73679;BME280;61978;52.742;16.962;2022-08-19T00:49:14;100202.64;;;21.77;100.00
73679;BME280;61978;52.742;16.962;2022-08-19T00:51:43;100211.13;;;21.76;100.00
73679;BME280;61978;52.742;16.962;2022-08-19T00:54:14;100216.31;;;21.77;100.00
73679;BME280;61978;52.742;16.962;2022-08-19T00:56:42;100210.30;;;21.78;100.00
73679;BME280;61978;52.742;16.962;2022-08-19T00:59:11;100211.41;;;21.79;100.00
73679;BME280;61978;52.742;16.962;2022-08-19T01:01:40;100208.39;;;21.81;100.00
73679;BME280;61978;52.742;16.962;2022-08-19T01:04:10;100203.21;;;21.79;100.00
73679;BME280;61978;52.742;16.962;2022-08-19T01:06:40;100205.66;;;21.81;100.00
73679;BME280;61978;52.742;16.962;2022-08-19T01:09:08;100192.27;;;21.79;100.00
73679;BME280;61978;52.742;16.962;2022-08-19T01:11:39;100192.53;;;21.80;100.00
73679;BME280;61978;52.742;16.962;2022-08-19T01:14:09;100187.59;;;21.80;100.00
73679;BME280;61978;52.742;16.962;2022-08-19T01:16:39;100182.16;;;21.82;100.00
73679;BME280;61978;52.742;16.962;2022-08-19T01:19:23;100182.41;;;21.83;100.00
73679;BME280;61978;52.742;16.962;2022-08-19T01:22:03;100181.33;;;21.84;100.00
73679;BME280;61978;52.742;16.962;2022-08-19T01:24:27;100174.48;;;21.84;100.00
73679;BME280;61978;52.742;16.962;2022-08-19T01:26:56;100173.13;;;21.84;100.00
73679;BME280;61978;52.742;16.962;2022-08-19T01:29:23;100164.39;;;21.82;100.00
73679;BME280;61978;52.742;16.962;2022-08-19T01:31:52;100166.00;;;21.83;100.00
73679;BME280;61978;52.742;16.962;2022-08-19T01:34:20;100168.20;;;21.81;100.00
73679;BME280;61978;52.742;16.962;2022-08-19T01:36:47;100167.92;;;21.80;100.00
73679;BME280;61978;52.742;16.962;2022-08-19T01:39:21;100171.22;;;21.72;100.00
73679;BME280;61978;52.742;16.962;2022-08-19T01:41:49;100174.51;;;21.64;100.00
73679;BME280;61978;52.742;16.962;2022-08-19T01:44:17;100185.70;;;21.57;100.00
73679;BME280;61978;52.742;16.962;2022-08-19T01:46:48;100179.69;;;21.48;100.00
73679;BME280;61978;52.742;16.962;2022-08-19T01:49:17;100186.25;;;21.32;100.00
73679;BME280;61978;52.742;16.962;2022-08-19T01:51:45;100177.20;;;21.19;100.00
73679;BME280;61978;52.742;16.962;2022-08-19T01:54:17;100176.63;;;21.12;100.00
73679;BME280;61978;52.742;16.962;2022-08-19T01:56:45;100176.84;;;21.02;100.00
73679;BME280;61978;52.742;16.962;2022-08-19T01:59:15;100171.92;;;20.97;100.00
73679;BME280;61978;52.742;16.962;2022-08-19T02:01:43;100171.38;;;20.87;100.00
73679;BME280;61978;52.742;16.962;2022-08-19T02:04:09;100174.84;;;20.73;100.00
73679;BME280;61978;52.742;16.962;2022-08-19T02:06:37;100178.38;;;20.63;100.00
73679;BME280;61978;52.742;16.962;2022-08-19T02:09:06;100169.08;;;20.59;100.00
73679;BME280;61978;52.742;16.962;2022-08-19T02:11:35;100170.69;;;20.55;100.00
73679;BME280;61978;52.742;16.962;2022-08-19T02:14:05;100160.58;;;20.48;100.00
73679;BME280;61978;52.742;16.962;2022-08-19T02:16:35;100159.98;;;20.41;100.00
73679;BME280;61978;52.742;16.962;2022-08-19T02:19:03;100157.55;;;20.42;100.00
73679;BME280;61978;52.742;16.962;2022-08-19T02:21:32;100154.53;;;20.41;100.00
73679;BME280;61978;52.742;16.962;2022-08-19T02:23:59;100157.80;;;20.43;100.00
73679;BME280;61978;52.742;16.962;2022-08-19T02:26:26;100151.56;;;20.45;100.00
73679;BME280;61978;52.742;16.962;2022-08-19T02:28:54;100141.20;;;20.52;100.00
73679;BME280;61978;52.742;16.962;2022-08-19T02:31:24;100137.15;;;20.55;100.00
73679;BME280;61978;52.742;16.962;2022-08-19T02:33:52;100131.95;;;20.58;100.00
73679;BME280;61978;52.742;16.962;2022-08-19T02:36:20;100132.78;;;20.61;100.00
73679;BME280;61978;52.742;16.962;2022-08-19T02:38:49;100132.52;;;20.60;100.00
73679;BME280;61978;52.742;16.962;2022-08-19T02:41:22;100122.15;;;20.57;100.00
73679;BME280;61978;52.742;16.962;2022-08-19T02:43:49;100127.31;;;20.56;100.00
73679;BME280;61978;52.742;16.962;2022-08-19T02:46:18;100117.47;;;20.53;100.00
73679;BME280;61978;52.742;16.962;2022-08-19T02:48:49;100106.56;;;20.53;100.00
73679;BME280;61978;52.742;16.962;2022-08-19T02:51:22;100104.38;;;20.52;100.00
73679;BME280;61978;52.742;16.962;2022-08-19T02:53:48;100110.90;;;20.46;100.00
73679;BME280;61978;52.742;16.962;2022-08-19T02:56:15;100111.17;;;20.42;100.00
73679;BME280;61978;52.742;16.962;2022-08-19T02:58:42;100105.14;;;20.37;100.00
73679;BME280;61978;52.742;16.962;2022-08-19T03:01:18;100108.69;;;20.33;100.00
73679;BME280;61978;52.742;16.962;2022-08-19T03:03:40;100116.03;;;20.30;100.00
73679;BME280;61978;52.742;16.962;2022-08-19T03:06:11;100124.75;;;20.27;100.00
73679;BME280;61978;52.742;16.962;2022-08-19T03:08:41;100121.41;;;20.22;100.00
73679;BME280;61978;52.742;16.962;2022-08-19T03:11:23;100123.29;;;20.17;100.00
73679;BME280;61978;52.742;16.962;2022-08-19T03:13:51;100122.45;;;20.11;100.00
73679;BME280;61978;52.742;16.962;2022-08-19T03:16:22;100119.69;;;20.04;100.00
73679;BME280;61978;52.742;16.962;2022-08-19T03:18:50;100113.41;;;20.01;100.00
73679;BME280;61978;52.742;16.962;2022-08-19T03:21:18;100105.47;;;19.96;100.00
73679;BME280;61978;52.742;16.962;2022-08-19T03:23:45;100114.19;;;19.98;100.00
73679;BME280;61978;52.742;16.962;2022-08-19T03:26:13;100108.79;;;20.04;100.00
73679;BME280;61978;52.742;16.962;2022-08-19T03:28:45;100103.06;;;20.05;100.00
73679;BME280;61978;52.742;16.962;2022-08-19T03:31:14;100103.89;;;20.08;100.00
73679;BME280;61978;52.742;16.962;2022-08-19T03:33:42;100093.81;;;20.11;100.00
73679;BME280;61978;52.742;16.962;2022-08-19T03:36:16;100092.75;;;20.15;100.00
73679;BME280;61978;52.742;16.962;2022-08-19T03:38:45;100102.05;;;20.19;100.00
73679;BME280;61978;52.742;16.962;2022-08-19T03:41:19;100106.97;;;20.22;100.00
73679;BME280;61978;52.742;16.962;2022-08-19T03:43:46;100100.70;;;20.24;100.00
73679;BME280;61978;52.742;16.962;2022-08-19T03:46:20;100104.58;;;20.28;100.00
73679;BME280;61978;52.742;16.962;2022-08-19T03:48:44;100109.22;;;20.32;100.00
73679;BME280;61978;52.742;16.962;2022-08-19T03:51:25;100109.23;;;20.35;100.00
73679;BME280;61978;52.742;16.962;2022-08-19T03:53:53;100106.25;;;20.39;100.00
73679;BME280;61978;52.742;16.962;2022-08-19T03:56:21;100108.45;;;20.42;100.00
73679;BME280;61978;52.742;16.962;2022-08-19T03:58:48;100112.25;;;20.41;100.00
73679;BME280;61978;52.742;16.962;2022-08-19T04:01:18;100112.00;;;20.42;100.00
73679;BME280;61978;52.742;16.962;2022-08-19T04:03:46;100101.34;;;20.43;100.00
73679;BME280;61978;52.742;16.962;2022-08-19T04:06:22;100113.09;;;20.44;100.00
73679;BME280;61978;52.742;16.962;2022-08-19T04:08:50;100098.63;;;20.46;100.00
73679;BME280;61978;52.742;16.962;2022-08-19T04:11:20;100087.46;;;20.50;100.00
73679;BME280;61978;52.742;16.962;2022-08-19T04:13:48;100091.84;;;20.51;100.00
73679;BME280;61978;52.742;16.962;2022-08-19T04:16:15;100081.19;;;20.52;100.00
73679;BME280;61978;52.742;16.962;2022-08-19T04:18:41;100086.67;;;20.55;100.00
73679;BME280;61978;52.742;16.962;2022-08-19T04:21:14;100070.84;;;20.54;100.00
73679;BME280;61978;52.742;16.962;2022-08-19T04:23:36;100073.03;;;20.57;100.00
73679;BME280;61978;52.742;16.962;2022-08-19T04:26:03;100077.37;;;20.58;100.00
73679;BME280;61978;52.742;16.962;2022-08-19T04:28:30;100084.48;;;20.59;100.00
73679;BME280;61978;52.742;16.962;2022-08-19T04:30:57;100099.24;;;20.63;100.00
73679;BME280;61978;52.742;16.962;2022-08-19T04:33:25;100091.60;;;20.65;100.00
73679;BME280;61978;52.742;16.962;2022-08-19T04:35:52;100103.06;;;20.67;100.00
73679;BME280;61978;52.742;16.962;2022-08-19T04:38:20;100100.08;;;20.71;100.00
73679;BME280;61978;52.742;16.962;2022-08-19T04:40:52;100097.63;;;20.72;100.00
73679;BME280;61978;52.742;16.962;2022-08-19T04:43:37;100101.45;;;20.76;100.00
73679;BME280;61978;52.742;16.962;2022-08-19T04:46:07;100096.27;;;20.77;100.00
73679;BME280;61978;52.742;16.962;2022-08-19T04:48:34;100102.02;;;20.83;100.00
73679;BME280;61978;52.742;16.962;2022-08-19T04:51:06;100100.94;;;20.89;100.00
73679;BME280;61978;52.742;16.962;2022-08-19T04:53:33;100100.39;;;20.97;100.00
73679;BME280;61978;52.742;16.962;2022-08-19T04:56:04;100106.13;;;21.06;100.00
73679;BME280;61978;52.742;16.962;2022-08-19T04:58:30;100115.75;;;21.19;100.00
73679;BME280;61978;52.742;16.962;2022-08-19T05:00:56;100110.55;;;21.30;100.00
73679;BME280;61978;52.742;16.962;2022-08-19T05:03:22;100100.19;;;21.37;100.00
73679;BME280;61978;52.742;16.962;2022-08-19T05:05:49;100099.09;;;21.40;100.00
73679;BME280;61978;52.742;16.962;2022-08-19T05:08:18;100095.80;;;21.48;100.00
73679;BME280;61978;52.742;16.962;2022-08-19T05:10:48;100087.05;;;21.51;100.00
73679;BME280;61978;52.742;16.962;2022-08-19T05:13:16;100090.59;;;21.62;100.00
73679;BME280;61978;52.742;16.962;2022-08-19T05:15:44;100088.39;;;21.79;100.00
73679;BME280;61978;52.742;16.962;2022-08-19T05:18:11;100089.47;;;21.93;100.00
73679;BME280;61978;52.742;16.962;2022-08-19T05:20:55;100085.33;;;22.03;100.00
73679;BME280;61978;52.742;16.962;2022-08-19T05:23:40;100094.34;;;22.06;100.00
73679;BME280;61978;52.742;16.962;2022-08-19T05:26:06;100099.23;;;22.20;100.00
73679;BME280;61978;52.742;16.962;2022-08-19T05:28:35;100094.54;;;22.33;100.00
73679;BME280;61978;52.742;16.962;2022-08-19T05:31:02;100103.24;;;22.45;100.00
73679;BME280;61978;52.742;16.962;2022-08-19T05:33:30;100097.98;;;22.56;100.00
73679;BME280;61978;52.742;16.962;2022-08-19T05:35:56;100096.78;;;22.80;100.00
73679;BME280;61978;52.742;16.962;2022-08-19T05:38:23;100101.48;;;23.10;100.00
73679;BME280;61978;52.742;16.962;2022-08-19T05:40:52;100082.66;;;23.35;100.00
73679;BME280;61978;52.742;16.962;2022-08-19T05:43:18;100082.19;;;23.25;100.00
73679;BME280;61978;52.742;16.962;2022-08-19T05:45:45;100082.77;;;23.25;100.00
73679;BME280;61978;52.742;16.962;2022-08-19T05:48:13;100079.22;;;23.19;100.00
73679;BME280;61978;52.742;16.962;2022-08-19T05:50:40;100082.64;;;23.40;100.00
73679;BME280;61978;52.742;16.962;2022-08-19T05:53:08;100081.73;;;23.50;100.00
73679;BME280;61978;52.742;16.962;2022-08-19T05:55:35;100087.55;;;23.46;100.00
73679;BME280;61978;52.742;16.962;2022-08-19T05:58:04;100086.77;;;23.69;100.00
73679;BME280;61978;52.742;16.962;2022-08-19T06:00:34;100078.81;;;23.96;100.00
73679;BME280;61978;52.742;16.962;2022-08-19T06:03:02;100078.64;;;24.11;100.00
73679;BME280;61978;52.742;16.962;2022-08-19T06:05:31;100077.94;;;24.24;100.00
73679;BME280;61978;52.742;16.962;2022-08-19T06:07:58;100066.26;;;24.38;100.00
73679;BME280;61978;52.742;16.962;2022-08-19T06:10:27;100069.44;;;24.45;100.00
73679;BME280;61978;52.742;16.962;2022-08-19T06:12:54;100065.39;;;24.61;100.00
73679;BME280;61978;52.742;16.962;2022-08-19T06:15:22;100058.03;;;24.75;100.00
73679;BME280;61978;52.742;16.962;2022-08-19T06:17:51;100051.69;;;25.14;100.00
73679;BME280;61978;52.742;16.962;2022-08-19T06:20:18;100054.38;;;25.17;100.00
73679;BME280;61978;52.742;16.962;2022-08-19T06:22:47;100046.78;;;25.11;100.00
73679;BME280;61978;52.742;16.962;2022-08-19T06:25:16;100044.44;;;25.21;100.00
73679;BME280;61978;52.742;16.962;2022-08-19T06:27:43;100047.55;;;25.30;100.00
73679;BME280;61978;52.742;16.962;2022-08-19T06:30:11;100051.70;;;25.76;100.00
73679;BME280;61978;52.742;16.962;2022-08-19T06:32:38;100044.72;;;25.81;100.00
73679;BME280;61978;52.742;16.962;2022-08-19T06:35:06;100055.05;;;25.87;100.00
73679;BME280;61978;52.742;16.962;2022-08-19T06:37:33;100054.67;;;26.07;100.00
73679;BME280;61978;52.742;16.962;2022-08-19T06:40:00;100054.56;;;26.12;100.00
73679;BME280;61978;52.742;16.962;2022-08-19T06:42:26;100050.41;;;26.15;100.00
73679;BME280;61978;52.742;16.962;2022-08-19T06:44:53;100047.42;;;26.11;100.00
73679;BME280;61978;52.742;16.962;2022-08-19T06:47:21;100044.16;;;26.09;100.00
73679;BME280;61978;52.742;16.962;2022-08-19T06:49:48;100039.48;;;26.23;100.00
73679;BME280;61978;52.742;16.962;2022-08-19T06:52:15;100035.30;;;26.39;100.00
73679;BME280;61978;52.742;16.962;2022-08-19T06:54:43;100028.72;;;26.49;100.00
73679;BME280;61978;52.742;16.962;2022-08-19T06:57:10;100024.70;;;26.69;100.00
73679;BME280;61978;52.742;16.962;2022-08-19T06:59:39;100025.62;;;27.00;100.00
73679;BME280;61978;52.742;16.962;2022-08-19T07:02:06;100028.20;;;27.19;100.00
73679;BME280;61978;52.742;16.962;2022-08-19T07:04:35;100021.72;;;27.23;100.00
73679;BME280;61978;52.742;16.962;2022-08-19T07:07:10;100038.97;;;27.18;100.00
73679;BME280;61978;52.742;16.962;2022-08-19T07:09:41;100029.99;;;27.23;100.00
73679;BME280;61978;52.742;16.962;2022-08-19T07:12:12;100024.13;;;27.49;100.00
73679;BME280;61978;52.742;16.962;2022-08-19T07:14:39;100020.28;;;27.48;100.00
73679;BME280;61978;52.742;16.962;2022-08-19T07:17:09;100021.58;;;27.81;100.00
73679;BME280;61978;52.742;16.962;2022-08-19T07:19:37;100023.27;;;27.99;100.00
73679;BME280;61978;52.742;16.962;2022-08-19T07:22:06;100018.57;;;28.00;100.00
73679;BME280;61978;52.742;16.962;2022-08-19T07:24:34;100010.55;;;28.29;100.00
73679;BME280;61978;52.742;16.962;2022-08-19T07:27:02;100005.52;;;28.48;100.00
73679;BME280;61978;52.742;16.962;2022-08-19T07:29:31;100004.77;;;28.28;100.00
73679;BME280;61978;52.742;16.962;2022-08-19T07:32:00;100006.17;;;28.54;100.00
73679;BME280;61978;52.742;16.962;2022-08-19T07:34:30;100021.88;;;28.47;100.00
73679;BME280;61978;52.742;16.962;2022-08-19T07:36:57;100025.55;;;28.62;100.00
73679;BME280;61978;52.742;16.962;2022-08-19T07:39:27;100034.44;;;28.51;100.00
73679;BME280;61978;52.742;16.962;2022-08-19T07:41:56;100035.72;;;28.36;100.00
73679;BME280;61978;52.742;16.962;2022-08-19T07:44:24;100033.09;;;28.59;100.00
73679;BME280;61978;52.742;16.962;2022-08-19T07:46:54;100037.37;;;28.54;100.00
73679;BME280;61978;52.742;16.962;2022-08-19T07:49:24;100050.59;;;28.29;100.00
73679;BME280;61978;52.742;16.962;2022-08-19T07:51:54;100049.59;;;28.53;100.00
73679;BME280;61978;52.742;16.962;2022-08-19T07:54:25;100057.06;;;28.61;100.00
73679;BME280;61978;52.742;16.962;2022-08-19T07:56:52;100058.65;;;28.65;100.00
73679;BME280;61978;52.742;16.962;2022-08-19T07:59:20;100055.76;;;28.50;100.00
73679;BME280;61978;52.742;16.962;2022-08-19T08:01:49;100053.76;;;28.34;100.00
73679;BME280;61978;52.742;16.962;2022-08-19T08:04:17;100044.36;;;28.43;100.00
73679;BME280;61978;52.742;16.962;2022-08-19T08:07:03;100058.42;;;28.16;100.00
73679;BME280;61978;52.742;16.962;2022-08-19T08:09:48;100065.31;;;28.36;100.00
73679;BME280;61978;52.742;16.962;2022-08-19T08:12:29;100062.25;;;28.54;100.00
73679;BME280;61978;52.742;16.962;2022-08-19T08:14:58;100056.84;;;28.78;100.00
73679;BME280;61978;52.742;16.962;2022-08-19T08:17:28;100053.30;;;28.86;100.00
73679;BME280;61978;52.742;16.962;2022-08-19T08:19:56;100041.98;;;28.85;100.00
73679;BME280;61978;52.742;16.962;2022-08-19T08:22:25;100047.88;;;28.63;100.00
73679;BME280;61978;52.742;16.962;2022-08-19T08:25:12;100053.17;;;28.62;100.00
73679;BME280;61978;52.742;16.962;2022-08-19T08:27:42;100050.92;;;28.73;100.00
73679;BME280;61978;52.742;16.962;2022-08-19T08:30:13;100051.66;;;28.68;100.00
73679;BME280;61978;52.742;16.962;2022-08-19T08:32:43;100042.63;;;28.64;100.00
73679;BME280;61978;52.742;16.962;2022-08-19T08:35:13;100035.50;;;28.89;100.00
73679;BME280;61978;52.742;16.962;2022-08-19T08:37:43;100025.72;;;29.00;100.00
73679;BME280;61978;52.742;16.962;2022-08-19T08:45:43;100003.05;;;29.64;100.00
73679;BME280;61978;52.742;16.962;2022-08-19T08:48:18;99998.23;;;29.67;100.00
73679;BME280;61978;52.742;16.962;2022-08-19T08:50:43;100003.58;;;29.49;100.00
73679;BME280;61978;52.742;16.962;2022-08-19T08:53:14;99988.59;;;29.73;100.00
73679;BME280;61978;52.742;16.962;2022-08-19T08:55:43;99983.51;;;29.69;100.00
73679;BME280;61978;52.742;16.962;2022-08-19T08:58:24;99981.42;;;29.72;100.00
73679;BME280;61978;52.742;16.962;2022-08-19T09:00:47;99977.99;;;29.75;100.00
73679;BME280;61978;52.742;16.962;2022-08-19T09:03:26;99983.53;;;29.75;100.00
73679;BME280;61978;52.742;16.962;2022-08-19T09:11:14;99987.70;;;29.52;100.00
73679;BME280;61978;52.742;16.962;2022-08-19T09:16:18;99974.53;;;29.49;100.00
73679;BME280;61978;52.742;16.962;2022-08-19T09:18:49;99964.64;;;29.63;100.00
73679;BME280;61978;52.742;16.962;2022-08-19T09:21:19;99968.23;;;29.63;100.00
73679;BME280;61978;52.742;16.962;2022-08-19T09:23:47;99972.03;;;29.65;100.00
73679;BME280;61978;52.742;16.962;2022-08-19T09:26:15;99965.31;;;29.74;100.00
73679;BME280;61978;52.742;16.962;2022-08-19T09:28:44;99959.91;;;29.87;100.00
73679;BME280;61978;52.742;16.962;2022-08-19T09:31:13;99948.27;;;30.02;100.00
73679;BME280;61978;52.742;16.962;2022-08-19T09:33:40;99963.53;;;29.70;100.00
73679;BME280;61978;52.742;16.962;2022-08-19T09:36:12;99959.91;;;29.87;100.00
73679;BME280;61978;52.742;16.962;2022-08-19T09:38:40;99961.81;;;29.95;100.00
73679;BME280;61978;52.742;16.962;2022-08-19T09:41:14;99947.75;;;30.14;100.00
73679;BME280;61978;52.742;16.962;2022-08-19T09:43:42;99939.23;;;30.34;100.00
73679;BME280;61978;52.742;16.962;2022-08-19T09:46:11;99934.11;;;30.30;100.00
73679;BME280;61978;52.742;16.962;2022-08-19T09:48:41;99938.91;;;30.21;100.00
73679;BME280;61978;52.742;16.962;2022-08-19T09:51:11;99924.95;;;30.38;100.00
73679;BME280;61978;52.742;16.962;2022-08-19T09:53:40;99933.89;;;30.50;100.00
73679;BME280;61978;52.742;16.962;2022-08-19T09:56:07;99935.01;;;30.63;100.00
73679;BME280;61978;52.742;16.962;2022-08-19T09:58:35;99930.03;;;30.63;100.00
73679;BME280;61978;52.742;16.962;2022-08-19T10:01:03;99940.98;;;30.59;100.00
73679;BME280;61978;52.742;16.962;2022-08-19T10:03:32;99945.51;;;30.22;100.00
73679;BME280;61978;52.742;16.962;2022-08-19T10:06:02;99936.95;;;30.21;100.00
73679;BME280;61978;52.742;16.962;2022-08-19T10:08:33;99917.04;;;30.75;100.00
73679;BME280;61978;52.742;16.962;2022-08-19T10:11:00;99917.94;;;30.67;100.00
73679;BME280;61978;52.742;16.962;2022-08-19T10:13:30;99921.06;;;30.45;100.00
73679;BME280;61978;52.742;16.962;2022-08-19T10:16:07;99911.34;;;30.66;100.00
73679;BME280;61978;52.742;16.962;2022-08-19T10:18:36;99888.53;;;30.87;100.00
73679;BME280;61978;52.742;16.962;2022-08-19T10:21:12;99885.52;;;31.37;100.00
73679;BME280;61978;52.742;16.962;2022-08-19T10:23:39;99901.67;;;31.11;100.00
73679;BME280;61978;52.742;16.962;2022-08-19T10:26:09;99898.89;;;31.05;100.00
73679;BME280;61978;52.742;16.962;2022-08-19T10:28:39;99903.90;;;30.84;100.00
73679;BME280;61978;52.742;16.962;2022-08-19T10:31:16;99886.31;;;31.19;100.00
73679;BME280;61978;52.742;16.962;2022-08-19T10:33:42;99871.52;;;31.39;100.00
73679;BME280;61978;52.742;16.962;2022-08-19T10:36:12;99865.06;;;31.60;100.00
73679;BME280;61978;52.742;16.962;2022-08-19T10:38:47;99858.70;;;31.41;100.00
73679;BME280;61978;52.742;16.962;2022-08-19T10:41:19;99860.31;;;31.66;100.00
73679;BME280;61978;52.742;16.962;2022-08-19T10:43:51;99854.02;;;31.93;100.00
73679;BME280;61978;52.742;16.962;2022-08-19T10:46:24;99856.14;;;31.78;100.00
73679;BME280;61978;52.742;16.962;2022-08-19T10:48:55;99848.53;;;31.57;100.00
73679;BME280;61978;52.742;16.962;2022-08-19T10:51:25;99837.40;;;31.75;100.00
73679;BME280;61978;52.742;16.962;2022-08-19T10:54:11;99821.13;;;32.02;100.00
73679;BME280;61978;52.742;16.962;2022-08-19T10:56:38;99789.42;;;32.36;100.00
73679;BME280;61978;52.742;16.962;2022-08-19T10:59:23;99795.92;;;32.28;100.00
73679;BME280;61978;52.742;16.962;2022-08-19T11:01:58;99792.41;;;32.37;100.00
73679;BME280;61978;52.742;16.962;2022-08-19T11:04:27;99774.85;;;32.49;99.45
73679;BME280;61978;52.742;16.962;2022-08-19T11:07:01;99769.20;;;32.67;99.73
73679;BME280;61978;52.742;16.962;2022-08-19T11:09:30;99740.83;;;32.83;100.00
73679;BME280;61978;52.742;16.962;2022-08-19T11:11:57;99750.44;;;32.49;98.55
73679;BME280;61978;52.742;16.962;2022-08-19T11:14:25;99739.38;;;32.58;100.00
73679;BME280;61978;52.742;16.962;2022-08-19T11:16:52;99735.94;;;32.86;97.27
73679;BME280;61978;52.742;16.962;2022-08-19T11:19:23;99731.05;;;32.89;93.73
73679;BME280;61978;52.742;16.962;2022-08-19T11:21:51;99726.06;;;32.73;93.48
73679;BME280;61978;52.742;16.962;2022-08-19T11:24:23;99738.72;;;32.33;94.28
73679;BME280;61978;52.742;16.962;2022-08-19T11:26:51;99731.50;;;32.38;95.49
73679;BME280;61978;52.742;16.962;2022-08-19T11:29:20;99712.34;;;32.43;94.61
73679;BME280;61978;52.742;16.962;2022-08-19T11:31:49;99714.36;;;32.58;92.15
73679;BME280;61978;52.742;16.962;2022-08-19T11:34:19;99703.70;;;32.60;94.75
73679;BME280;61978;52.742;16.962;2022-08-19T11:36:49;99704.86;;;32.75;90.09
73679;BME280;61978;52.742;16.962;2022-08-19T11:39:21;99699.20;;;32.71;91.30
73679;BME280;61978;52.742;16.962;2022-08-19T11:41:49;99691.25;;;32.79;91.33
73679;BME280;61978;52.742;16.962;2022-08-19T11:44:17;99657.30;;;33.40;89.72
73679;BME280;61978;52.742;16.962;2022-08-19T11:46:46;99672.87;;;33.35;84.98
73679;BME280;61978;52.742;16.962;2022-08-19T11:49:16;99665.84;;;33.41;84.07
73679;BME280;61978;52.742;16.962;2022-08-19T11:51:46;99667.12;;;33.43;84.28
73679;BME280;61978;52.742;16.962;2022-08-19T11:54:17;99657.16;;;33.52;84.37
73679;BME280;61978;52.742;16.962;2022-08-19T11:56:44;99653.05;;;33.56;84.62
73679;BME280;61978;52.742;16.962;2022-08-19T11:59:13;99647.77;;;33.31;84.68
73679;BME280;61978;52.742;16.962;2022-08-19T12:01:40;99638.31;;;33.45;85.74
73679;BME280;61978;52.742;16.962;2022-08-19T12:04:09;99647.91;;;33.58;82.21
73679;BME280;61978;52.742;16.962;2022-08-19T12:06:39;99628.57;;;33.74;82.69
73679;BME280;61978;52.742;16.962;2022-08-19T12:09:09;99626.67;;;33.78;81.27
73679;BME280;61978;52.742;16.962;2022-08-19T12:11:38;99628.88;;;33.69;79.25
73679;BME280;61978;52.742;16.962;2022-08-19T12:14:06;99625.95;;;33.62;79.32
73679;BME280;61978;52.742;16.962;2022-08-19T12:16:34;99623.55;;;33.61;79.38
73679;BME280;61978;52.742;16.962;2022-08-19T12:19:02;99601.91;;;33.73;80.78
73679;BME280;61978;52.742;16.962;2022-08-19T12:21:34;99601.84;;;33.70;81.45
73679;BME280;61978;52.742;16.962;2022-08-19T12:24:03;99594.55;;;33.84;81.18
73679;BME280;61978;52.742;16.962;2022-08-19T12:26:31;99600.98;;;33.88;83.46
73679;BME280;61978;52.742;16.962;2022-08-19T12:28:59;99600.08;;;33.62;82.93
73679;BME280;61978;52.742;16.962;2022-08-19T12:31:28;99602.55;;;33.47;85.55
73679;BME280;61978;52.742;16.962;2022-08-19T12:33:57;99585.04;;;33.47;88.00
73679;BME280;61978;52.742;16.962;2022-08-19T12:36:26;99599.70;;;33.44;87.45
73679;BME280;61978;52.742;16.962;2022-08-19T12:38:52;99593.55;;;33.54;87.89
73679;BME280;61978;52.742;16.962;2022-08-19T12:41:20;99588.58;;;33.63;87.32
73679;BME280;61978;52.742;16.962;2022-08-19T12:43:48;99615.73;;;33.50;85.57
73679;BME280;61978;52.742;16.962;2022-08-19T12:46:16;99602.63;;;33.51;84.66
73679;BME280;61978;52.742;16.962;2022-08-19T12:48:43;99597.87;;;33.51;85.85
73679;BME280;61978;52.742;16.962;2022-08-19T12:51:16;99592.53;;;33.62;85.38
73679;BME280;61978;52.742;16.962;2022-08-19T12:53:46;99600.16;;;33.46;84.84
73679;BME280;61978;52.742;16.962;2022-08-19T12:56:14;99610.09;;;33.09;86.03
73679;BME280;61978;52.742;16.962;2022-08-19T12:58:42;99610.84;;;32.99;86.71
73679;BME280;61978;52.742;16.962;2022-08-19T13:01:11;99615.34;;;33.04;87.04